sensor_id;sensor_type;location;lat;lon;timestamp;P1;durP1;ratioP1;P2;durP2;ratioP2
69534;SDS011;56754;51.568;5.048;2024-02-15T00:01:52;4.53;;;2.40;;
69534;SDS011;56754;51.568;5.048;2024-02-15T00:04:17;5.93;;;2.83;;
69534;SDS011;56754;51.568;5.048;2024-02-15T00:06:43;5.10;;;2.40;;
69534;SDS011;56754;51.568;5.048;2024-02-15T00:09:08;5.18;;;2.35;;
69534;SDS011;56754;51.568;5.048;2024-02-15T00:11:33;5.40;;;2.90;;
69534;SDS011;56754;51.568;5.048;2024-02-15T00:13:59;6.40;;;2.60;;
69534;SDS011;56754;51.568;5.048;2024-02-15T00:16:24;7.23;;;3.00;;
69534;SDS011;56754;51.568;5.048;2024-02-15T00:18:50;6.30;;;3.30;;
69534;SDS011;56754;51.568;5.048;2024-02-15T00:21:15;6.57;;;2.80;;
69534;SDS011;56754;51.568;5.048;2024-02-15T00:23:43;6.22;;;2.58;;
69534;SDS011;56754;51.568;5.048;2024-02-15T00:26:09;5.35;;;2.42;;
69534;SDS011;56754;51.568;5.048;2024-02-15T00:28:34;5.73;;;2.47;;
69534;SDS011;56754;51.568;5.048;2024-02-15T00:30:59;9.13;;;3.10;;
69534;SDS011;56754;51.568;5.048;2024-02-15T00:33:24;5.70;;;2.80;;
69534;SDS011;56754;51.568;5.048;2024-02-15T00:35:50;6.80;;;3.13;;
69534;SDS011;56754;51.568;5.048;2024-02-15T00:38:15;6.27;;;2.93;;
69534;SDS011;56754;51.568;5.048;2024-02-15T00:40:40;6.27;;;2.47;;
69534;SDS011;56754;51.568;5.048;2024-02-15T00:43:05;6.07;;;2.40;;
69534;SDS011;56754;51.568;5.048;2024-02-15T00:45:31;6.37;;;2.80;;
69534;SDS011;56754;51.568;5.048;2024-02-15T00:47:56;6.63;;;2.77;;
69534;SDS011;56754;51.568;5.048;2024-02-15T00:50:21;5.60;;;2.65;;
69534;SDS011;56754;51.568;5.048;2024-02-15T00:52:47;9.13;;;3.23;;
69534;SDS011;56754;51.568;5.048;2024-02-15T00:55:12;5.50;;;2.50;;
69534;SDS011;56754;51.568;5.048;2024-02-15T00:57:37;6.77;;;2.90;;
69534;SDS011;56754;51.568;5.048;2024-02-15T01:00:03;6.93;;;2.67;;
69534;SDS011;56754;51.568;5.048;2024-02-15T01:02:30;7.63;;;3.10;;
69534;SDS011;56754;51.568;5.048;2024-02-15T01:04:55;5.53;;;2.67;;
69534;SDS011;56754;51.568;5.048;2024-02-15T01:07:20;6.87;;;2.70;;
69534;SDS011;56754;51.568;5.048;2024-02-15T01:09:45;6.57;;;2.50;;
69534;SDS011;56754;51.568;5.048;2024-02-15T01:12:11;5.87;;;2.30;;
69534;SDS011;56754;51.568;5.048;2024-02-15T01:14:36;5.57;;;2.70;;
69534;SDS011;56754;51.568;5.048;2024-02-15T01:17:02;8.23;;;2.60;;
69534;SDS011;56754;51.568;5.048;2024-02-15T01:19:27;8.20;;;3.07;;
69534;SDS011;56754;51.568;5.048;2024-02-15T01:21:52;6.77;;;2.73;;
69534;SDS011;56754;51.568;5.048;2024-02-15T01:24:18;7.03;;;3.20;;
69534;SDS011;56754;51.568;5.048;2024-02-15T01:26:43;6.80;;;2.60;;
69534;SDS011;56754;51.568;5.048;2024-02-15T01:29:08;6.43;;;2.60;;
69534;SDS011;56754;51.568;5.048;2024-02-15T01:31:34;6.22;;;2.60;;
69534;SDS011;56754;51.568;5.048;2024-02-15T01:33:59;6.77;;;2.53;;
69534;SDS011;56754;51.568;5.048;2024-02-15T01:36:24;6.37;;;2.60;;
69534;SDS011;56754;51.568;5.048;2024-02-15T01:38:49;8.97;;;3.20;;
69534;SDS011;56754;51.568;5.048;2024-02-15T01:41:15;7.27;;;2.40;;
69534;SDS011;56754;51.568;5.048;2024-02-15T01:43:43;5.57;;;2.50;;
69534;SDS011;56754;51.568;5.048;2024-02-15T01:46:09;5.88;;;1.98;;
69534;SDS011;56754;51.568;5.048;2024-02-15T01:48:40;5.90;;;2.10;;
69534;SDS011;56754;51.568;5.048;2024-02-15T01:51:07;6.55;;;2.15;;
69534;SDS011;56754;51.568;5.048;2024-02-15T01:53:34;5.77;;;2.20;;
69534;SDS011;56754;51.568;5.048;2024-02-15T01:55:59;6.78;;;2.30;;
69534;SDS011;56754;51.568;5.048;2024-02-15T01:58:28;5.47;;;2.20;;
69534;SDS011;56754;51.568;5.048;2024-02-15T02:00:54;5.07;;;2.20;;
69534;SDS011;56754;51.568;5.048;2024-02-15T02:03:21;5.57;;;2.10;;
69534;SDS011;56754;51.568;5.048;2024-02-15T02:05:46;6.90;;;2.38;;
69534;SDS011;56754;51.568;5.048;2024-02-15T02:08:12;6.57;;;2.10;;
69534;SDS011;56754;51.568;5.048;2024-02-15T02:10:38;5.73;;;2.13;;
69534;SDS011;56754;51.568;5.048;2024-02-15T02:13:03;6.97;;;2.25;;
69534;SDS011;56754;51.568;5.048;2024-02-15T02:15:31;6.63;;;2.00;;
69534;SDS011;56754;51.568;5.048;2024-02-15T02:18:05;6.43;;;2.07;;
69534;SDS011;56754;51.568;5.048;2024-02-15T02:20:31;6.05;;;2.15;;
69534;SDS011;56754;51.568;5.048;2024-02-15T02:23:02;5.77;;;2.07;;
69534;SDS011;56754;51.568;5.048;2024-02-15T02:25:38;5.63;;;2.10;;
69534;SDS011;56754;51.568;5.048;2024-02-15T02:28:05;5.80;;;2.00;;
69534;SDS011;56754;51.568;5.048;2024-02-15T02:30:31;6.18;;;2.20;;
69534;SDS011;56754;51.568;5.048;2024-02-15T02:32:57;7.27;;;2.17;;
69534;SDS011;56754;51.568;5.048;2024-02-15T02:35:22;4.90;;;1.87;;
69534;SDS011;56754;51.568;5.048;2024-02-15T02:37:47;5.63;;;2.00;;
69534;SDS011;56754;51.568;5.048;2024-02-15T02:40:13;6.60;;;2.27;;
69534;SDS011;56754;51.568;5.048;2024-02-15T02:45:12;9.35;;;2.38;;
69534;SDS011;56754;51.568;5.048;2024-02-15T02:47:38;6.17;;;2.00;;
69534;SDS011;56754;51.568;5.048;2024-02-15T02:50:03;8.43;;;2.07;;
69534;SDS011;56754;51.568;5.048;2024-02-15T02:52:28;5.30;;;1.85;;
69534;SDS011;56754;51.568;5.048;2024-02-15T02:54:54;6.27;;;1.93;;
69534;SDS011;56754;51.568;5.048;2024-02-15T02:57:19;4.47;;;1.90;;
69534;SDS011;56754;51.568;5.048;2024-02-15T02:59:44;6.27;;;1.87;;
69534;SDS011;56754;51.568;5.048;2024-02-15T03:02:10;7.27;;;2.13;;
69534;SDS011;56754;51.568;5.048;2024-02-15T03:04:35;5.87;;;1.93;;
69534;SDS011;56754;51.568;5.048;2024-02-15T03:07:00;6.10;;;1.80;;
69534;SDS011;56754;51.568;5.048;2024-02-15T03:09:25;6.63;;;2.10;;
69534;SDS011;56754;51.568;5.048;2024-02-15T03:11:51;5.67;;;1.80;;
69534;SDS011;56754;51.568;5.048;2024-02-15T03:14:16;7.55;;;1.85;;
69534;SDS011;56754;51.568;5.048;2024-02-15T03:16:41;6.33;;;1.90;;
69534;SDS011;56754;51.568;5.048;2024-02-15T03:19:06;6.70;;;1.93;;
69534;SDS011;56754;51.568;5.048;2024-02-15T03:21:32;6.70;;;2.00;;
69534;SDS011;56754;51.568;5.048;2024-02-15T03:23:57;6.20;;;1.90;;
69534;SDS011;56754;51.568;5.048;2024-02-15T03:26:32;5.50;;;1.67;;
69534;SDS011;56754;51.568;5.048;2024-02-15T03:28:57;4.78;;;1.73;;
69534;SDS011;56754;51.568;5.048;2024-02-15T03:31:23;4.60;;;1.80;;
69534;SDS011;56754;51.568;5.048;2024-02-15T03:33:48;4.97;;;1.50;;
69534;SDS011;56754;51.568;5.048;2024-02-15T03:36:13;5.73;;;1.90;;
69534;SDS011;56754;51.568;5.048;2024-02-15T03:38:38;6.07;;;1.60;;
69534;SDS011;56754;51.568;5.048;2024-02-15T03:41:04;5.07;;;1.97;;
69534;SDS011;56754;51.568;5.048;2024-02-15T03:43:29;4.75;;;1.80;;
69534;SDS011;56754;51.568;5.048;2024-02-15T03:45:54;7.53;;;1.90;;
69534;SDS011;56754;51.568;5.048;2024-02-15T03:48:19;7.37;;;1.87;;
69534;SDS011;56754;51.568;5.048;2024-02-15T03:50:45;5.67;;;1.80;;
69534;SDS011;56754;51.568;5.048;2024-02-15T03:53:10;7.80;;;1.70;;
69534;SDS011;56754;51.568;5.048;2024-02-15T03:55:35;5.83;;;1.77;;
69534;SDS011;56754;51.568;5.048;2024-02-15T03:58:01;5.30;;;1.57;;
69534;SDS011;56754;51.568;5.048;2024-02-15T04:00:26;6.13;;;1.80;;
69534;SDS011;56754;51.568;5.048;2024-02-15T04:02:51;7.30;;;1.67;;
69534;SDS011;56754;51.568;5.048;2024-02-15T04:05:16;7.03;;;1.92;;
69534;SDS011;56754;51.568;5.048;2024-02-15T04:07:42;5.03;;;1.63;;
69534;SDS011;56754;51.568;5.048;2024-02-15T04:10:07;4.70;;;1.70;;
69534;SDS011;56754;51.568;5.048;2024-02-15T04:12:33;6.17;;;1.70;;
69534;SDS011;56754;51.568;5.048;2024-02-15T04:15:03;5.80;;;1.40;;
69534;SDS011;56754;51.568;5.048;2024-02-15T04:17:30;4.85;;;1.48;;
69534;SDS011;56754;51.568;5.048;2024-02-15T04:19:55;5.37;;;1.60;;
69534;SDS011;56754;51.568;5.048;2024-02-15T04:22:20;7.57;;;1.67;;
69534;SDS011;56754;51.568;5.048;2024-02-15T04:24:45;5.27;;;1.70;;
69534;SDS011;56754;51.568;5.048;2024-02-15T04:27:11;4.67;;;1.50;;
69534;SDS011;56754;51.568;5.048;2024-02-15T04:29:36;6.20;;;1.42;;
69534;SDS011;56754;51.568;5.048;2024-02-15T04:32:02;5.63;;;1.77;;
69534;SDS011;56754;51.568;5.048;2024-02-15T04:34:27;5.47;;;1.37;;
69534;SDS011;56754;51.568;5.048;2024-02-15T04:36:53;7.60;;;1.53;;
69534;SDS011;56754;51.568;5.048;2024-02-15T04:39:18;5.23;;;1.30;;
69534;SDS011;56754;51.568;5.048;2024-02-15T04:41:43;4.47;;;1.53;;
69534;SDS011;56754;51.568;5.048;2024-02-15T04:44:08;6.83;;;1.60;;
69534;SDS011;56754;51.568;5.048;2024-02-15T04:46:34;5.73;;;1.50;;
69534;SDS011;56754;51.568;5.048;2024-02-15T04:48:59;5.87;;;1.33;;
69534;SDS011;56754;51.568;5.048;2024-02-15T04:51:24;6.80;;;1.60;;
69534;SDS011;56754;51.568;5.048;2024-02-15T04:53:49;4.60;;;1.70;;
69534;SDS011;56754;51.568;5.048;2024-02-15T04:56:15;6.30;;;1.43;;
69534;SDS011;56754;51.568;5.048;2024-02-15T04:58:40;4.95;;;1.48;;
69534;SDS011;56754;51.568;5.048;2024-02-15T05:01:05;4.50;;;1.20;;
69534;SDS011;56754;51.568;5.048;2024-02-15T05:03:31;5.47;;;1.20;;
69534;SDS011;56754;51.568;5.048;2024-02-15T05:06:00;5.38;;;1.38;;
69534;SDS011;56754;51.568;5.048;2024-02-15T05:08:26;5.17;;;1.40;;
69534;SDS011;56754;51.568;5.048;2024-02-15T05:10:51;4.18;;;1.35;;
69534;SDS011;56754;51.568;5.048;2024-02-15T05:13:16;4.43;;;1.33;;
69534;SDS011;56754;51.568;5.048;2024-02-15T05:15:41;4.23;;;1.30;;
69534;SDS011;56754;51.568;5.048;2024-02-15T05:18:07;4.10;;;1.20;;
69534;SDS011;56754;51.568;5.048;2024-02-15T05:20:32;5.67;;;1.40;;
69534;SDS011;56754;51.568;5.048;2024-02-15T05:22:57;4.43;;;1.30;;
69534;SDS011;56754;51.568;5.048;2024-02-15T05:25:23;4.10;;;1.50;;
69534;SDS011;56754;51.568;5.048;2024-02-15T05:27:48;4.63;;;1.30;;
69534;SDS011;56754;51.568;5.048;2024-02-15T05:30:14;4.97;;;1.40;;
69534;SDS011;56754;51.568;5.048;2024-02-15T05:32:39;4.07;;;1.20;;
69534;SDS011;56754;51.568;5.048;2024-02-15T05:35:05;4.43;;;1.30;;
69534;SDS011;56754;51.568;5.048;2024-02-15T05:37:30;6.47;;;1.37;;
69534;SDS011;56754;51.568;5.048;2024-02-15T05:39:56;4.87;;;1.43;;
69534;SDS011;56754;51.568;5.048;2024-02-15T05:42:21;5.20;;;1.40;;
69534;SDS011;56754;51.568;5.048;2024-02-15T05:44:46;5.68;;;1.60;;
69534;SDS011;56754;51.568;5.048;2024-02-15T05:47:11;5.40;;;1.50;;
69534;SDS011;56754;51.568;5.048;2024-02-15T05:49:37;3.80;;;1.17;;
69534;SDS011;56754;51.568;5.048;2024-02-15T05:52:02;5.30;;;1.30;;
69534;SDS011;56754;51.568;5.048;2024-02-15T05:54:29;4.30;;;1.43;;
69534;SDS011;56754;51.568;5.048;2024-02-15T05:56:54;5.45;;;1.63;;
69534;SDS011;56754;51.568;5.048;2024-02-15T05:59:20;5.40;;;1.37;;
69534;SDS011;56754;51.568;5.048;2024-02-15T06:01:45;5.57;;;1.40;;
69534;SDS011;56754;51.568;5.048;2024-02-15T06:04:11;4.90;;;1.38;;
69534;SDS011;56754;51.568;5.048;2024-02-15T06:06:36;4.07;;;1.10;;
69534;SDS011;56754;51.568;5.048;2024-02-15T06:09:01;5.13;;;1.40;;
69534;SDS011;56754;51.568;5.048;2024-02-15T06:11:27;4.50;;;1.20;;
69534;SDS011;56754;51.568;5.048;2024-02-15T06:13:52;4.40;;;1.27;;
69534;SDS011;56754;51.568;5.048;2024-02-15T06:16:17;5.30;;;1.08;;
69534;SDS011;56754;51.568;5.048;2024-02-15T06:18:43;4.17;;;1.30;;
69534;SDS011;56754;51.568;5.048;2024-02-15T06:21:08;4.33;;;1.20;;
69534;SDS011;56754;51.568;5.048;2024-02-15T06:23:35;4.85;;;1.20;;
69534;SDS011;56754;51.568;5.048;2024-02-15T06:26:00;5.07;;;1.27;;
69534;SDS011;56754;51.568;5.048;2024-02-15T06:28:25;5.10;;;1.37;;
69534;SDS011;56754;51.568;5.048;2024-02-15T06:30:51;4.40;;;1.20;;
69534;SDS011;56754;51.568;5.048;2024-02-15T06:33:16;4.70;;;1.17;;
69534;SDS011;56754;51.568;5.048;2024-02-15T06:35:41;4.90;;;1.20;;
69534;SDS011;56754;51.568;5.048;2024-02-15T06:38:07;3.03;;;1.20;;
69534;SDS011;56754;51.568;5.048;2024-02-15T06:40:32;5.37;;;1.60;;
69534;SDS011;56754;51.568;5.048;2024-02-15T06:42:57;4.50;;;1.47;;
69534;SDS011;56754;51.568;5.048;2024-02-15T06:45:23;4.57;;;1.50;;
69534;SDS011;56754;51.568;5.048;2024-02-15T06:47:48;5.47;;;1.30;;
69534;SDS011;56754;51.568;5.048;2024-02-15T06:50:13;4.33;;;1.20;;
69534;SDS011;56754;51.568;5.048;2024-02-15T06:52:42;5.63;;;1.13;;
69534;SDS011;56754;51.568;5.048;2024-02-15T06:55:08;5.32;;;1.23;;
69534;SDS011;56754;51.568;5.048;2024-02-15T06:57:34;3.40;;;1.10;;
69534;SDS011;56754;51.568;5.048;2024-02-15T07:00:00;4.32;;;1.10;;
69534;SDS011;56754;51.568;5.048;2024-02-15T07:02:25;3.60;;;0.90;;
69534;SDS011;56754;51.568;5.048;2024-02-15T07:04:50;3.97;;;1.10;;
69534;SDS011;56754;51.568;5.048;2024-02-15T07:07:15;3.80;;;1.10;;
69534;SDS011;56754;51.568;5.048;2024-02-15T07:09:41;3.40;;;0.87;;
69534;SDS011;56754;51.568;5.048;2024-02-15T07:12:06;4.00;;;1.10;;
69534;SDS011;56754;51.568;5.048;2024-02-15T07:14:31;3.90;;;1.10;;
69534;SDS011;56754;51.568;5.048;2024-02-15T07:16:57;4.53;;;1.27;;
69534;SDS011;56754;51.568;5.048;2024-02-15T07:19:22;3.90;;;1.10;;
69534;SDS011;56754;51.568;5.048;2024-02-15T07:21:47;4.43;;;1.17;;
69534;SDS011;56754;51.568;5.048;2024-02-15T07:24:12;3.83;;;1.30;;
69534;SDS011;56754;51.568;5.048;2024-02-15T07:26:38;3.53;;;1.13;;
69534;SDS011;56754;51.568;5.048;2024-02-15T07:29:03;3.92;;;1.20;;
69534;SDS011;56754;51.568;5.048;2024-02-15T07:31:28;4.30;;;1.30;;
69534;SDS011;56754;51.568;5.048;2024-02-15T07:33:54;4.40;;;1.30;;
69534;SDS011;56754;51.568;5.048;2024-02-15T07:36:20;5.13;;;1.25;;
69534;SDS011;56754;51.568;5.048;2024-02-15T07:38:46;3.90;;;1.10;;
69534;SDS011;56754;51.568;5.048;2024-02-15T07:41:11;3.43;;;1.00;;
69534;SDS011;56754;51.568;5.048;2024-02-15T07:43:36;6.27;;;1.37;;
69534;SDS011;56754;51.568;5.048;2024-02-15T07:46:01;4.63;;;1.10;;
69534;SDS011;56754;51.568;5.048;2024-02-15T07:48:27;4.53;;;1.17;;
69534;SDS011;56754;51.568;5.048;2024-02-15T07:50:52;5.37;;;1.47;;
69534;SDS011;56754;51.568;5.048;2024-02-15T07:53:17;4.03;;;1.27;;
69534;SDS011;56754;51.568;5.048;2024-02-15T07:55:43;4.27;;;1.43;;
69534;SDS011;56754;51.568;5.048;2024-02-15T07:58:08;3.23;;;1.00;;
69534;SDS011;56754;51.568;5.048;2024-02-15T08:00:33;3.57;;;1.10;;
69534;SDS011;56754;51.568;5.048;2024-02-15T08:02:58;3.17;;;0.90;;
69534;SDS011;56754;51.568;5.048;2024-02-15T08:05:24;3.90;;;1.10;;
69534;SDS011;56754;51.568;5.048;2024-02-15T08:07:49;4.60;;;1.17;;
69534;SDS011;56754;51.568;5.048;2024-02-15T08:10:15;3.23;;;1.23;;
69534;SDS011;56754;51.568;5.048;2024-02-15T08:12:43;4.33;;;1.00;;
69534;SDS011;56754;51.568;5.048;2024-02-15T08:15:10;4.95;;;1.20;;
69534;SDS011;56754;51.568;5.048;2024-02-15T08:17:35;4.13;;;1.10;;
69534;SDS011;56754;51.568;5.048;2024-02-15T08:20:01;3.87;;;1.00;;
69534;SDS011;56754;51.568;5.048;2024-02-15T08:22:26;3.70;;;1.17;;
69534;SDS011;56754;51.568;5.048;2024-02-15T08:24:52;4.13;;;1.00;;
69534;SDS011;56754;51.568;5.048;2024-02-15T08:27:17;3.78;;;1.13;;
69534;SDS011;56754;51.568;5.048;2024-02-15T08:29:42;3.97;;;1.10;;
69534;SDS011;56754;51.568;5.048;2024-02-15T08:32:08;4.80;;;0.97;;
69534;SDS011;56754;51.568;5.048;2024-02-15T08:34:33;4.17;;;1.20;;
69534;SDS011;56754;51.568;5.048;2024-02-15T08:36:58;4.00;;;1.17;;
69534;SDS011;56754;51.568;5.048;2024-02-15T08:39:24;3.40;;;1.00;;
69534;SDS011;56754;51.568;5.048;2024-02-15T08:41:50;3.53;;;1.00;;
69534;SDS011;56754;51.568;5.048;2024-02-15T08:44:15;4.37;;;1.20;;
69534;SDS011;56754;51.568;5.048;2024-02-15T08:46:41;3.07;;;0.80;;
69534;SDS011;56754;51.568;5.048;2024-02-15T08:49:06;4.37;;;1.10;;
69534;SDS011;56754;51.568;5.048;2024-02-15T08:51:31;4.47;;;1.13;;
69534;SDS011;56754;51.568;5.048;2024-02-15T08:53:56;5.20;;;1.23;;
69534;SDS011;56754;51.568;5.048;2024-02-15T08:56:23;5.57;;;1.10;;
69534;SDS011;56754;51.568;5.048;2024-02-15T08:58:48;4.43;;;1.30;;
69534;SDS011;56754;51.568;5.048;2024-02-15T09:01:14;4.77;;;1.10;;
69534;SDS011;56754;51.568;5.048;2024-02-15T09:03:39;3.17;;;0.90;;
69534;SDS011;56754;51.568;5.048;2024-02-15T09:06:04;5.20;;;1.37;;
69534;SDS011;56754;51.568;5.048;2024-02-15T09:08:30;5.03;;;1.10;;
69534;SDS011;56754;51.568;5.048;2024-02-15T09:10:55;7.93;;;1.23;;
69534;SDS011;56754;51.568;5.048;2024-02-15T09:13:20;3.70;;;1.07;;
69534;SDS011;56754;51.568;5.048;2024-02-15T09:15:46;4.53;;;1.10;;
69534;SDS011;56754;51.568;5.048;2024-02-15T09:18:11;5.13;;;1.30;;
69534;SDS011;56754;51.568;5.048;2024-02-15T09:20:36;3.87;;;1.13;;
69534;SDS011;56754;51.568;5.048;2024-02-15T09:23:01;5.30;;;1.63;;
69534;SDS011;56754;51.568;5.048;2024-02-15T09:25:27;5.93;;;1.33;;
69534;SDS011;56754;51.568;5.048;2024-02-15T09:27:52;4.63;;;1.20;;
69534;SDS011;56754;51.568;5.048;2024-02-15T09:30:17;5.43;;;1.37;;
69534;SDS011;56754;51.568;5.048;2024-02-15T09:32:43;4.30;;;1.40;;
69534;SDS011;56754;51.568;5.048;2024-02-15T09:35:10;6.05;;;1.55;;
69534;SDS011;56754;51.568;5.048;2024-02-15T09:37:36;4.68;;;1.33;;
69534;SDS011;56754;51.568;5.048;2024-02-15T09:40:03;5.05;;;1.05;;
69534;SDS011;56754;51.568;5.048;2024-02-15T09:42:32;5.40;;;1.20;;
69534;SDS011;56754;51.568;5.048;2024-02-15T09:44:58;6.05;;;1.35;;
69534;SDS011;56754;51.568;5.048;2024-02-15T09:47:24;6.03;;;1.23;;
69534;SDS011;56754;51.568;5.048;2024-02-15T09:49:51;5.03;;;1.00;;
69534;SDS011;56754;51.568;5.048;2024-02-15T09:52:16;4.90;;;1.30;;
69534;SDS011;56754;51.568;5.048;2024-02-15T09:54:42;5.18;;;1.20;;
69534;SDS011;56754;51.568;5.048;2024-02-15T09:57:08;6.23;;;1.50;;
69534;SDS011;56754;51.568;5.048;2024-02-15T09:59:33;5.05;;;1.42;;
69534;SDS011;56754;51.568;5.048;2024-02-15T10:01:59;4.33;;;1.00;;
69534;SDS011;56754;51.568;5.048;2024-02-15T10:04:24;6.47;;;1.30;;
69534;SDS011;56754;51.568;5.048;2024-02-15T10:06:49;5.20;;;1.30;;
69534;SDS011;56754;51.568;5.048;2024-02-15T10:09:27;4.77;;;1.30;;
69534;SDS011;56754;51.568;5.048;2024-02-15T10:11:55;5.13;;;1.30;;
69534;SDS011;56754;51.568;5.048;2024-02-15T10:14:22;6.25;;;1.70;;
69534;SDS011;56754;51.568;5.048;2024-02-15T10:16:48;8.38;;;1.70;;
69534;SDS011;56754;51.568;5.048;2024-02-15T10:19:13;6.40;;;1.50;;
69534;SDS011;56754;51.568;5.048;2024-02-15T10:21:39;8.77;;;1.70;;
69534;SDS011;56754;51.568;5.048;2024-02-15T10:24:05;6.10;;;1.53;;
69534;SDS011;56754;51.568;5.048;2024-02-15T10:26:33;6.07;;;1.63;;
69534;SDS011;56754;51.568;5.048;2024-02-15T10:29:09;4.90;;;1.23;;
69534;SDS011;56754;51.568;5.048;2024-02-15T10:31:35;5.85;;;1.50;;
69534;SDS011;56754;51.568;5.048;2024-02-15T10:34:04;5.05;;;1.48;;
69534;SDS011;56754;51.568;5.048;2024-02-15T10:36:30;5.70;;;1.20;;
69534;SDS011;56754;51.568;5.048;2024-02-15T10:39:09;4.75;;;1.10;;
69534;SDS011;56754;51.568;5.048;2024-02-15T10:41:35;5.80;;;1.63;;
69534;SDS011;56754;51.568;5.048;2024-02-15T10:44:02;6.55;;;1.40;;
69534;SDS011;56754;51.568;5.048;2024-02-15T10:46:28;4.38;;;1.13;;
69534;SDS011;56754;51.568;5.048;2024-02-15T10:48:54;5.83;;;1.20;;
69534;SDS011;56754;51.568;5.048;2024-02-15T10:51:20;4.80;;;1.30;;
69534;SDS011;56754;51.568;5.048;2024-02-15T10:53:47;7.50;;;1.73;;
69534;SDS011;56754;51.568;5.048;2024-02-15T10:56:19;5.20;;;1.25;;
69534;SDS011;56754;51.568;5.048;2024-02-15T10:58:53;5.63;;;1.40;;
69534;SDS011;56754;51.568;5.048;2024-02-15T11:01:35;3.97;;;1.20;;
69534;SDS011;56754;51.568;5.048;2024-02-15T11:04:05;4.37;;;1.10;;
69534;SDS011;56754;51.568;5.048;2024-02-15T11:06:33;4.35;;;1.25;;
69534;SDS011;56754;51.568;5.048;2024-02-15T11:09:03;4.00;;;1.10;;
69534;SDS011;56754;51.568;5.048;2024-02-15T11:11:28;3.08;;;1.00;;
69534;SDS011;56754;51.568;5.048;2024-02-15T11:16:52;4.93;;;1.27;;
69534;SDS011;56754;51.568;5.048;2024-02-15T11:22:01;4.53;;;1.33;;
69534;SDS011;56754;51.568;5.048;2024-02-15T11:24:33;5.05;;;1.25;;
69534;SDS011;56754;51.568;5.048;2024-02-15T11:26:58;3.80;;;1.20;;
69534;SDS011;56754;51.568;5.048;2024-02-15T11:32:34;4.72;;;1.13;;
69534;SDS011;56754;51.568;5.048;2024-02-15T11:35:07;3.13;;;1.10;;
69534;SDS011;56754;51.568;5.048;2024-02-15T11:40:17;4.45;;;1.25;;
69534;SDS011;56754;51.568;5.048;2024-02-15T11:43:02;4.80;;;1.30;;
69534;SDS011;56754;51.568;5.048;2024-02-15T11:45:28;6.17;;;1.20;;
69534;SDS011;56754;51.568;5.048;2024-02-15T11:47:54;4.65;;;1.27;;
69534;SDS011;56754;51.568;5.048;2024-02-15T11:50:20;4.97;;;1.37;;
69534;SDS011;56754;51.568;5.048;2024-02-15T11:52:47;5.40;;;1.20;;
69534;SDS011;56754;51.568;5.048;2024-02-15T11:55:13;5.15;;;1.20;;
69534;SDS011;56754;51.568;5.048;2024-02-15T11:57:42;4.23;;;1.10;;
69534;SDS011;56754;51.568;5.048;2024-02-15T12:00:07;3.93;;;1.10;;
69534;SDS011;56754;51.568;5.048;2024-02-15T12:02:33;4.53;;;1.23;;
69534;SDS011;56754;51.568;5.048;2024-02-15T12:04:58;4.37;;;1.37;;
69534;SDS011;56754;51.568;5.048;2024-02-15T12:07:24;4.07;;;1.10;;
69534;SDS011;56754;51.568;5.048;2024-02-15T12:09:49;3.97;;;1.00;;
69534;SDS011;56754;51.568;5.048;2024-02-15T12:12:14;4.93;;;1.13;;
69534;SDS011;56754;51.568;5.048;2024-02-15T12:14:40;4.40;;;1.37;;
69534;SDS011;56754;51.568;5.048;2024-02-15T12:17:05;3.57;;;1.13;;
69534;SDS011;56754;51.568;5.048;2024-02-15T12:19:32;3.60;;;1.05;;
69534;SDS011;56754;51.568;5.048;2024-02-15T12:21:57;4.53;;;1.10;;
69534;SDS011;56754;51.568;5.048;2024-02-15T12:24:24;5.22;;;1.20;;
69534;SDS011;56754;51.568;5.048;2024-02-15T12:26:49;5.93;;;1.10;;
69534;SDS011;56754;51.568;5.048;2024-02-15T12:29:18;4.53;;;1.00;;
69534;SDS011;56754;51.568;5.048;2024-02-15T12:31:43;4.78;;;1.30;;
69534;SDS011;56754;51.568;5.048;2024-02-15T12:34:09;7.93;;;1.20;;
69534;SDS011;56754;51.568;5.048;2024-02-15T12:36:34;2.60;;;0.77;;
69534;SDS011;56754;51.568;5.048;2024-02-15T12:39:00;3.92;;;1.13;;
69534;SDS011;56754;51.568;5.048;2024-02-15T12:41:27;4.60;;;1.20;;
69534;SDS011;56754;51.568;5.048;2024-02-15T12:43:53;3.17;;;0.80;;
69534;SDS011;56754;51.568;5.048;2024-02-15T12:46:19;3.37;;;0.80;;
69534;SDS011;56754;51.568;5.048;2024-02-15T12:48:45;3.63;;;0.90;;
69534;SDS011;56754;51.568;5.048;2024-02-15T12:51:13;4.23;;;1.00;;
69534;SDS011;56754;51.568;5.048;2024-02-15T12:53:39;2.95;;;0.70;;
69534;SDS011;56754;51.568;5.048;2024-02-15T12:56:05;4.13;;;1.00;;
69534;SDS011;56754;51.568;5.048;2024-02-15T12:58:30;3.47;;;1.10;;
69534;SDS011;56754;51.568;5.048;2024-02-15T13:00:56;3.97;;;0.97;;
69534;SDS011;56754;51.568;5.048;2024-02-15T13:03:21;3.60;;;0.90;;
69534;SDS011;56754;51.568;5.048;2024-02-15T13:05:46;3.75;;;0.95;;
69534;SDS011;56754;51.568;5.048;2024-02-15T13:08:12;3.97;;;0.80;;
69534;SDS011;56754;51.568;5.048;2024-02-15T13:10:37;3.50;;;0.70;;
69534;SDS011;56754;51.568;5.048;2024-02-15T13:13:02;3.03;;;0.70;;
69534;SDS011;56754;51.568;5.048;2024-02-15T13:15:28;3.37;;;0.80;;
69534;SDS011;56754;51.568;5.048;2024-02-15T13:17:53;3.27;;;0.80;;
69534;SDS011;56754;51.568;5.048;2024-02-15T13:20:19;4.47;;;1.02;;
69534;SDS011;56754;51.568;5.048;2024-02-15T13:22:46;4.15;;;0.95;;
69534;SDS011;56754;51.568;5.048;2024-02-15T13:25:12;4.72;;;0.90;;
69534;SDS011;56754;51.568;5.048;2024-02-15T13:27:37;2.77;;;0.70;;
69534;SDS011;56754;51.568;5.048;2024-02-15T13:30:02;2.97;;;0.80;;
69534;SDS011;56754;51.568;5.048;2024-02-15T13:32:28;3.37;;;0.90;;
69534;SDS011;56754;51.568;5.048;2024-02-15T13:34:53;5.10;;;0.70;;
69534;SDS011;56754;51.568;5.048;2024-02-15T13:37:19;3.50;;;0.70;;
69534;SDS011;56754;51.568;5.048;2024-02-15T13:39:44;2.33;;;0.67;;
69534;SDS011;56754;51.568;5.048;2024-02-15T13:42:09;3.67;;;0.80;;
69534;SDS011;56754;51.568;5.048;2024-02-15T13:44:35;3.87;;;0.70;;
69534;SDS011;56754;51.568;5.048;2024-02-15T13:47:00;2.53;;;0.67;;
69534;SDS011;56754;51.568;5.048;2024-02-15T13:49:25;3.22;;;0.73;;
69534;SDS011;56754;51.568;5.048;2024-02-15T13:51:51;2.83;;;0.80;;
69534;SDS011;56754;51.568;5.048;2024-02-15T13:54:16;2.70;;;0.80;;
69534;SDS011;56754;51.568;5.048;2024-02-15T13:56:41;3.40;;;0.80;;
69534;SDS011;56754;51.568;5.048;2024-02-15T13:59:07;2.77;;;0.80;;
69534;SDS011;56754;51.568;5.048;2024-02-15T14:01:32;2.83;;;0.77;;
69534;SDS011;56754;51.568;5.048;2024-02-15T14:03:57;2.73;;;0.80;;
69534;SDS011;56754;51.568;5.048;2024-02-15T14:06:23;2.80;;;0.90;;
69534;SDS011;56754;51.568;5.048;2024-02-15T14:08:48;2.57;;;0.80;;
69534;SDS011;56754;51.568;5.048;2024-02-15T14:11:13;2.77;;;0.63;;
69534;SDS011;56754;51.568;5.048;2024-02-15T14:13:38;2.93;;;0.80;;
69534;SDS011;56754;51.568;5.048;2024-02-15T14:16:04;2.80;;;0.73;;
69534;SDS011;56754;51.568;5.048;2024-02-15T14:18:30;1.95;;;0.70;;
69534;SDS011;56754;51.568;5.048;2024-02-15T14:20:55;3.40;;;0.77;;
69534;SDS011;56754;51.568;5.048;2024-02-15T14:23:20;3.50;;;0.80;;
69534;SDS011;56754;51.568;5.048;2024-02-15T14:25:46;4.43;;;0.77;;
69534;SDS011;56754;51.568;5.048;2024-02-15T14:28:11;2.33;;;0.50;;
69534;SDS011;56754;51.568;5.048;2024-02-15T14:30:39;2.57;;;0.60;;
69534;SDS011;56754;51.568;5.048;2024-02-15T14:33:05;2.47;;;0.55;;
69534;SDS011;56754;51.568;5.048;2024-02-15T14:35:37;2.90;;;0.70;;
69534;SDS011;56754;51.568;5.048;2024-02-15T14:38:04;3.13;;;0.63;;
69534;SDS011;56754;51.568;5.048;2024-02-15T14:40:34;2.10;;;0.50;;
69534;SDS011;56754;51.568;5.048;2024-02-15T14:43:00;3.55;;;0.90;;
69534;SDS011;56754;51.568;5.048;2024-02-15T14:45:25;3.47;;;0.77;;
69534;SDS011;56754;51.568;5.048;2024-02-15T14:47:51;2.77;;;0.63;;
69534;SDS011;56754;51.568;5.048;2024-02-15T14:50:16;2.00;;;0.60;;
69534;SDS011;56754;51.568;5.048;2024-02-15T14:52:41;2.40;;;0.70;;
69534;SDS011;56754;51.568;5.048;2024-02-15T14:55:06;2.33;;;0.70;;